createdAt,value
2023-08-17T00:01:18.592Z,41385.81
2023-08-17T00:03:45.068Z,41425.75
2023-08-17T00:06:11.750Z,41421.75
2023-08-17T00:08:38.217Z,41401.78
2023-08-17T00:11:04.715Z,41413.75
2023-08-17T00:13:31.171Z,41443.72
2023-08-17T00:15:57.994Z,41451.69
2023-08-17T00:18:24.540Z,41459.66
2023-08-17T00:20:50.962Z,41463.66
2023-08-17T00:23:17.410Z,41473.66
2023-08-17T00:25:43.900Z,41491.63
2023-08-17T00:28:10.377Z,41479.63
2023-08-17T00:30:38.519Z,41489.63
2023-08-17T00:33:05.422Z,41483.63
2023-08-17T00:35:32.245Z,41491.63
2023-08-17T00:37:58.794Z,41511.56
2023-08-17T00:40:25.279Z,41519.56
2023-08-17T00:42:52.722Z,41515.56
2023-08-17T00:45:20.754Z,41527.53
2023-08-17T00:47:47.564Z,41491.63
2023-08-17T00:50:15.921Z,41511.56
2023-08-17T00:52:43.560Z,41525.53
2023-08-17T00:55:12.134Z,41539.53
2023-08-17T00:57:38.753Z,41535.53
2023-08-17T01:00:06.790Z,41543.50
2023-08-17T01:02:34.135Z,41555.50
2023-08-17T01:05:02.048Z,41581.44
2023-08-17T01:07:28.795Z,41583.44
2023-08-17T01:09:55.570Z,41603.41
2023-08-17T01:12:32.752Z,41591.41
2023-08-17T01:15:14.222Z,41631.34
2023-08-17T01:17:45.239Z,41627.34
2023-08-17T01:20:14.607Z,41643.31
2023-08-17T01:22:43.808Z,41655.28
2023-08-17T01:25:10.427Z,41683.25
2023-08-17T01:27:46.530Z,41667.28
2023-08-17T01:30:16.500Z,41675.25
2023-08-17T01:32:51.947Z,41683.25
2023-08-17T01:35:25.453Z,41695.22
2023-08-17T01:37:56.695Z,41703.19
2023-08-17T01:40:24.040Z,41721.16
2023-08-17T01:42:51.641Z,41711.19
2023-08-17T01:45:18.559Z,41745.13
2023-08-17T01:47:45.048Z,41751.13
2023-08-17T01:50:11.611Z,41729.16
2023-08-17T01:52:38.060Z,41757.09
2023-08-17T01:55:04.937Z,41767.09
2023-08-17T01:57:31.383Z,41787.03
2023-08-17T01:59:58.034Z,41826.97
2023-08-17T02:02:24.622Z,41809.00
2023-08-17T02:04:51.111Z,41842.94
2023-08-17T02:07:17.652Z,41836.94
2023-08-17T02:09:47.522Z,41846.94
2023-08-17T02:12:14.003Z,41858.91
2023-08-17T02:14:40.968Z,41866.91
2023-08-17T02:17:07.593Z,41870.88
2023-08-17T02:19:34.074Z,41870.88
2023-08-17T02:22:00.656Z,41910.81
2023-08-17T02:24:27.151Z,41870.88
2023-08-17T02:26:53.639Z,41874.88
2023-08-17T02:29:20.146Z,41886.84
2023-08-17T02:31:46.571Z,41870.88
2023-08-17T02:34:13.052Z,41866.91
2023-08-17T02:36:39.575Z,41882.88
2023-08-17T02:39:06.670Z,41852.91
2023-08-17T02:41:33.390Z,41864.91
2023-08-17T02:44:01.180Z,41862.91
2023-08-17T02:46:27.667Z,41844.94
2023-08-17T02:48:54.201Z,41870.88
2023-08-17T02:51:20.764Z,41850.94
2023-08-17T02:53:47.329Z,41866.91
2023-08-17T02:56:13.836Z,41846.94
2023-08-17T02:58:43.282Z,41858.91
2023-08-17T03:01:10.133Z,41846.94
2023-08-17T03:03:36.998Z,41866.91
2023-08-17T03:06:03.945Z,41854.91
2023-08-17T03:08:30.393Z,41878.88
2023-08-17T03:10:56.918Z,41874.88
2023-08-17T03:13:23.450Z,41880.88
2023-08-17T03:15:50.674Z,41892.84
2023-08-17T03:18:17.148Z,41902.84
2023-08-17T03:20:46.667Z,41906.81
2023-08-17T03:23:13.236Z,41916.81
2023-08-17T03:25:40.470Z,41924.78
2023-08-17T03:28:07.141Z,41922.78
2023-08-17T03:30:34.040Z,41922.78
2023-08-17T03:33:00.617Z,41934.78
2023-08-17T03:35:27.324Z,41966.72
2023-08-17T03:37:53.975Z,41982.69
2023-08-17T03:40:21.331Z,41986.69
2023-08-17T03:42:47.773Z,41994.66
2023-08-17T03:45:14.318Z,42006.66
2023-08-17T03:47:40.868Z,42000.66
2023-08-17T03:50:07.974Z,41986.69
2023-08-17T03:52:34.577Z,41996.66
2023-08-17T03:55:01.431Z,42002.66
2023-08-17T03:57:28.256Z,42012.63
2023-08-17T03:59:55.025Z,42022.63
2023-08-17T04:02:21.664Z,42016.63
2023-08-17T04:04:48.206Z,42024.59
2023-08-17T04:07:22.031Z,42022.63
2023-08-17T04:09:48.521Z,42026.59
2023-08-17T04:12:15.666Z,42018.63
2023-08-17T04:14:42.529Z,42030.59
2023-08-17T04:17:09.067Z,42046.56
2023-08-17T04:19:35.777Z,42054.56
2023-08-17T04:22:02.212Z,42034.59
2023-08-17T04:24:28.664Z,42054.56
2023-08-17T04:26:55.151Z,42054.56
2023-08-17T04:29:21.848Z,42042.56
2023-08-17T04:31:48.927Z,42066.53
2023-08-17T04:34:15.451Z,42072.53
2023-08-17T04:36:42.124Z,42080.50
2023-08-17T04:39:10.280Z,42060.53
2023-08-17T04:41:36.907Z,42068.53
2023-08-17T04:44:07.023Z,42078.50
2023-08-17T04:46:33.579Z,42094.47
2023-08-17T04:49:00.530Z,42064.53
2023-08-17T04:51:27.926Z,42092.50
2023-08-17T04:53:56.868Z,42086.50
2023-08-17T04:56:23.472Z,42090.50
2023-08-17T04:58:50.038Z,42104.47
2023-08-17T05:01:19.278Z,42090.50
2023-08-17T05:03:46.694Z,42102.47
2023-08-17T05:06:14.369Z,42106.47
2023-08-17T05:08:41.083Z,42114.44
2023-08-17T05:11:07.844Z,42114.44
2023-08-17T05:13:34.320Z,42136.41
2023-08-17T05:16:03.429Z,42160.38
2023-08-17T05:18:31.097Z,42182.31
2023-08-17T05:20:57.946Z,42202.28
2023-08-17T05:23:24.465Z,42218.25
2023-08-17T05:25:52.634Z,42230.25
2023-08-17T05:28:19.159Z,42256.19
2023-08-17T05:30:45.627Z,42278.16
2023-08-17T05:33:12.098Z,42304.13
2023-08-17T05:35:39.524Z,42300.13
2023-08-17T05:38:05.997Z,42316.09
2023-08-17T05:40:33.469Z,42346.03
2023-08-17T05:43:00.232Z,42364.00
2023-08-17T05:45:26.715Z,42376.00
2023-08-17T05:47:53.763Z,42372.00
2023-08-17T05:50:20.364Z,42378.00
2023-08-17T05:52:46.822Z,42393.97
2023-08-17T05:55:13.288Z,42403.94
2023-08-17T05:57:39.863Z,42419.91
2023-08-17T06:00:07.009Z,42405.94
2023-08-17T06:02:39.877Z,42417.94
2023-08-17T06:05:07.092Z,42411.94
2023-08-17T06:07:33.878Z,42415.94
2023-08-17T06:10:00.497Z,42439.88
2023-08-17T06:12:26.978Z,42431.91
2023-08-17T06:14:53.430Z,42449.88
2023-08-17T06:17:20.989Z,42429.91
2023-08-17T06:19:47.504Z,42441.88
2023-08-17T06:22:14.094Z,42439.88
2023-08-17T06:24:40.521Z,42427.91
2023-08-17T06:27:06.971Z,42409.94
2023-08-17T06:29:33.395Z,42409.94
2023-08-17T06:31:59.884Z,42405.94
2023-08-17T06:34:26.366Z,42413.94
2023-08-17T06:37:03.130Z,42399.97
2023-08-17T06:39:29.688Z,42409.94
2023-08-17T06:41:56.229Z,42425.91
2023-08-17T06:44:22.702Z,42405.94
2023-08-17T06:46:49.160Z,42393.97
2023-08-17T06:49:15.845Z,42395.97
2023-08-17T06:51:42.285Z,42397.97
2023-08-17T06:54:10.378Z,42397.97
2023-08-17T06:56:36.887Z,42362.03
2023-08-17T06:59:03.949Z,42378.00
2023-08-17T07:01:30.453Z,42360.03
2023-08-17T07:03:58.082Z,42362.03
2023-08-17T07:06:26.041Z,42362.03
2023-08-17T07:08:53.667Z,42387.97
2023-08-17T07:11:20.334Z,42358.03
2023-08-17T07:13:47.693Z,42372.00
2023-08-17T07:16:14.545Z,42362.03
2023-08-17T07:18:41.580Z,42374.00
2023-08-17T07:21:08.062Z,42393.97
2023-08-17T07:23:34.649Z,42405.94
2023-08-17T07:26:01.280Z,42411.94
2023-08-17T07:28:27.762Z,42387.97
2023-08-17T07:30:54.271Z,42385.97
2023-08-17T07:33:20.731Z,42387.97
2023-08-17T07:35:47.175Z,42381.97
2023-08-17T07:38:14.000Z,42368.00
2023-08-17T07:40:40.513Z,42378.00
2023-08-17T07:43:06.962Z,42381.97
2023-08-17T07:45:33.416Z,42368.00
2023-08-17T07:47:59.886Z,42370.00
2023-08-17T07:50:26.382Z,42362.03
2023-08-17T07:52:52.810Z,42354.03
2023-08-17T07:55:19.314Z,42354.03
2023-08-17T07:57:45.819Z,42338.06
2023-08-17T08:00:12.908Z,42362.03
2023-08-17T08:02:39.396Z,42362.03
2023-08-17T08:05:07.021Z,42338.06
2023-08-17T08:07:33.480Z,42350.03
2023-08-17T08:09:59.937Z,42322.09
2023-08-17T08:12:26.578Z,42332.06
2023-08-17T08:14:53.013Z,42302.13
2023-08-17T08:17:20.554Z,42310.09
2023-08-17T08:19:47.392Z,42310.09
2023-08-17T08:22:13.906Z,42330.06
2023-08-17T08:27:08.788Z,42314.09
2023-08-17T08:29:35.244Z,42298.13
2023-08-17T08:32:03.782Z,42322.09
2023-08-17T08:34:30.229Z,42314.09
2023-08-17T08:36:56.674Z,42326.09
2023-08-17T08:39:23.127Z,42312.09
2023-08-17T08:41:49.756Z,42306.13
2023-08-17T08:44:16.332Z,42310.09
2023-08-17T08:46:45.789Z,42322.09
2023-08-17T08:49:13.310Z,42328.06
2023-08-17T08:51:44.917Z,42310.09
2023-08-17T08:54:21.187Z,42310.09
2023-08-17T08:56:52.655Z,42320.09
2023-08-17T08:59:21.468Z,42310.09
2023-08-17T09:01:49.944Z,42316.09
2023-08-17T09:04:18.087Z,42314.09
2023-08-17T09:06:44.965Z,42298.13
2023-08-17T09:09:12.617Z,42300.13
2023-08-17T09:11:44.902Z,42308.09
2023-08-17T09:14:11.927Z,42302.13
2023-08-17T09:16:38.505Z,42298.13
2023-08-17T09:19:05.374Z,42288.16
2023-08-17T09:21:33.954Z,42290.13
2023-08-17T09:24:00.860Z,42296.13
2023-08-17T09:26:32.771Z,42298.13
2023-08-17T09:29:00.603Z,42298.13
2023-08-17T09:31:27.449Z,42288.16
2023-08-17T09:33:54.268Z,42302.13
2023-08-17T09:36:24.788Z,42314.09
2023-08-17T09:38:54.434Z,42302.13
2023-08-17T09:41:21.135Z,42290.13
2023-08-17T09:43:48.599Z,42318.09
2023-08-17T09:46:16.038Z,42316.09
2023-08-17T09:48:45.079Z,42296.13
2023-08-17T09:51:11.845Z,42306.13
2023-08-17T09:53:38.576Z,42322.09
2023-08-17T09:56:08.562Z,42306.13
2023-08-17T09:58:35.039Z,42300.13
2023-08-17T10:01:05.381Z,42294.13
2023-08-17T10:03:35.480Z,42302.13
2023-08-17T10:06:11.242Z,42286.16
2023-08-17T10:08:44.377Z,42298.13
2023-08-17T10:11:11.219Z,42290.13
2023-08-17T10:13:45.583Z,42290.13
2023-08-17T10:16:39.696Z,42270.19
2023-08-17T10:19:12.496Z,42310.09
2023-08-17T10:22:09.676Z,42304.13
2023-08-17T10:24:38.657Z,42298.13
2023-08-17T10:27:07.068Z,42312.09
2023-08-17T10:29:34.247Z,42306.13
2023-08-17T10:32:02.246Z,42318.09
2023-08-17T10:34:29.960Z,42302.13
2023-08-17T10:36:59.070Z,42304.13
2023-08-17T10:39:30.696Z,42306.13
2023-08-17T10:41:59.121Z,42310.09
2023-08-17T10:44:49.309Z,42300.13
2023-08-17T10:47:36.803Z,42318.09
2023-08-17T10:50:20.718Z,42324.09
2023-08-17T10:52:49.317Z,42290.13
2023-08-17T10:55:16.197Z,42302.13
2023-08-17T10:57:44.433Z,42314.09
2023-08-17T11:00:27.443Z,42312.09
2023-08-17T11:03:02.257Z,42310.09
2023-08-17T11:05:59.779Z,42306.13
2023-08-17T11:08:34.501Z,42298.13
2023-08-17T11:11:15.014Z,42306.13
2023-08-17T11:13:44.353Z,42320.09
2023-08-17T11:16:13.734Z,42314.09
2023-08-17T11:18:42.834Z,42298.13
2023-08-17T11:21:11.127Z,42302.13
2023-08-17T11:23:38.393Z,42322.09
2023-08-17T11:26:05.761Z,42322.09
2023-08-17T11:28:43.272Z,42302.13
2023-08-17T11:31:12.682Z,42298.13
2023-08-17T11:33:40.356Z,42310.09
2023-08-17T11:36:08.984Z,42316.09
2023-08-17T11:38:40.437Z,42306.13
2023-08-17T11:41:09.335Z,42306.13
2023-08-17T11:43:36.781Z,42304.13
2023-08-17T11:46:04.066Z,42306.13
2023-08-17T11:48:36.699Z,42316.09
2023-08-17T11:51:04.855Z,42296.13
2023-08-17T11:53:39.809Z,42320.09
2023-08-17T11:56:09.491Z,42322.09
2023-08-17T11:58:45.408Z,42298.13
2023-08-17T12:01:13.670Z,42342.06
2023-08-17T12:03:43.993Z,42316.09
2023-08-17T12:06:13.668Z,42298.13
2023-08-17T12:08:45.483Z,42288.16
2023-08-17T12:11:13.231Z,42326.09
2023-08-17T12:13:39.715Z,42326.09
2023-08-17T12:16:06.362Z,42324.09
2023-08-17T12:18:34.355Z,42310.09
2023-08-17T12:21:01.464Z,42294.13
2023-08-17T12:23:27.980Z,42298.13
2023-08-17T12:25:55.970Z,42302.13
2023-08-17T12:28:24.145Z,42296.13
2023-08-17T12:30:59.276Z,42284.16
2023-08-17T12:33:25.812Z,42302.13
2023-08-17T12:35:52.306Z,42278.16
2023-08-17T12:38:18.962Z,42298.13
2023-08-17T12:40:45.511Z,42270.19
2023-08-17T12:43:15.477Z,42286.16
2023-08-17T12:45:42.667Z,42298.13
2023-08-17T12:48:09.244Z,42278.16
2023-08-17T12:50:35.785Z,42270.19
2023-08-17T12:53:02.264Z,42276.16
2023-08-17T12:55:28.807Z,42282.16
2023-08-17T12:57:55.333Z,42294.13
2023-08-17T13:00:21.888Z,42306.13
2023-08-17T13:02:52.717Z,42278.16
2023-08-17T13:05:19.211Z,42282.16
2023-08-17T13:07:45.703Z,42274.16
2023-08-17T13:10:12.169Z,42270.19
2023-08-17T13:12:38.651Z,42280.16
2023-08-17T13:15:05.819Z,42250.22
2023-08-17T13:17:32.332Z,42264.19
2023-08-17T13:19:58.775Z,42254.19
2023-08-17T13:22:25.571Z,42278.16
2023-08-17T13:24:52.253Z,42262.19
2023-08-17T13:27:18.699Z,42282.16
2023-08-17T13:29:45.152Z,42256.19
2023-08-17T13:32:11.586Z,42282.16
2023-08-17T13:34:38.143Z,42258.19
2023-08-17T13:37:04.790Z,42270.19
2023-08-17T13:39:31.328Z,42256.19
2023-08-17T13:41:57.746Z,42270.19
2023-08-17T13:44:24.303Z,42274.16
2023-08-17T13:46:50.717Z,42278.16
2023-08-17T13:49:17.213Z,42272.16
2023-08-17T13:51:43.975Z,42258.19
2023-08-17T13:54:10.424Z,42274.16
2023-08-17T13:56:36.897Z,42288.16
2023-08-17T13:59:03.585Z,42260.19
2023-08-17T14:01:30.409Z,42266.19
2023-08-17T14:03:56.951Z,42276.16
2023-08-17T14:06:23.641Z,42270.19
2023-08-17T14:08:50.195Z,42264.19
2023-08-17T14:11:16.647Z,42258.19
2023-08-17T14:13:43.572Z,42270.19
2023-08-17T14:16:10.093Z,42270.19
2023-08-17T14:18:36.685Z,42266.19
2023-08-17T14:21:03.326Z,42274.16
2023-08-17T14:23:29.791Z,42274.16
2023-08-17T14:25:56.286Z,42278.16
2023-08-17T14:28:23.042Z,42252.22
2023-08-17T14:33:18.926Z,42246.22
2023-08-17T14:35:45.418Z,42258.19
2023-08-17T14:38:14.217Z,42256.19
2023-08-17T14:40:48.388Z,42242.22
2023-08-17T14:43:15.720Z,42258.19
2023-08-17T14:45:45.011Z,42250.22
2023-08-17T14:48:11.689Z,42270.19
2023-08-17T14:50:38.959Z,42264.19
2023-08-17T14:53:08.650Z,42256.19
2023-08-17T14:55:35.669Z,42266.19
2023-08-17T14:58:04.077Z,42254.19
2023-08-17T15:00:33.744Z,42262.19
2023-08-17T15:03:02.133Z,42270.19
2023-08-17T15:05:29.464Z,42286.16
2023-08-17T15:07:56.460Z,42264.19
2023-08-17T15:10:23.258Z,42260.19
2023-08-17T15:12:50.056Z,42246.22
2023-08-17T15:15:20.547Z,42266.19
2023-08-17T15:17:47.606Z,42254.19
2023-08-17T15:20:14.218Z,42262.19
2023-08-17T15:22:40.656Z,42278.16
2023-08-17T15:25:07.429Z,42274.16
2023-08-17T15:27:34.031Z,42266.19
2023-08-17T15:30:01.037Z,42260.19
2023-08-17T15:32:27.882Z,42270.19
2023-08-17T15:34:56.846Z,42274.16
2023-08-17T15:37:24.146Z,42256.19
2023-08-17T15:39:51.528Z,42262.19
2023-08-17T15:42:18.114Z,42256.19
2023-08-17T15:44:44.718Z,42278.16
2023-08-17T15:47:11.186Z,42254.19
2023-08-17T15:49:37.642Z,42246.22
2023-08-17T15:52:06.220Z,42266.19
2023-08-17T15:54:36.796Z,42256.19
2023-08-17T15:57:05.421Z,42254.19
2023-08-17T15:59:32.142Z,42250.22
2023-08-17T16:01:58.639Z,42258.19
2023-08-17T16:04:25.227Z,42266.19
2023-08-17T16:06:51.666Z,42234.25
2023-08-17T16:09:18.088Z,42238.22
2023-08-17T16:11:44.552Z,42246.22
2023-08-17T16:14:11.371Z,42246.22
2023-08-17T16:16:37.839Z,42256.19
2023-08-17T16:19:05.170Z,42254.19
2023-08-17T16:21:32.176Z,42238.22
2023-08-17T16:23:58.658Z,42242.22
2023-08-17T16:26:25.579Z,42244.22
2023-08-17T16:28:52.312Z,42234.25
2023-08-17T16:31:18.830Z,42232.25
2023-08-17T16:33:46.811Z,42246.22
2023-08-17T16:36:14.604Z,42242.22
2023-08-17T16:38:41.086Z,42230.25
2023-08-17T16:41:08.751Z,42226.25
2023-08-17T16:43:35.155Z,42222.25
2023-08-17T16:46:01.809Z,42242.22
2023-08-17T16:48:28.420Z,42230.25
2023-08-17T16:50:54.898Z,42226.25
2023-08-17T16:53:21.582Z,42204.28
2023-08-17T16:58:20.269Z,42218.25
2023-08-17T17:00:46.742Z,42246.22
2023-08-17T17:03:13.305Z,42250.22
2023-08-17T17:05:40.018Z,42234.25
2023-08-17T17:08:07.077Z,42222.25
2023-08-17T17:10:33.610Z,42228.25
2023-08-17T17:13:00.150Z,42206.28
2023-08-17T17:15:26.894Z,42218.25
2023-08-17T17:17:53.405Z,42218.25
2023-08-17T17:20:19.934Z,42246.22
2023-08-17T17:22:46.418Z,42214.28
2023-08-17T17:25:12.932Z,42226.25
2023-08-17T17:27:40.834Z,42222.25
2023-08-17T17:30:08.093Z,42246.22
2023-08-17T17:32:34.711Z,42224.25
2023-08-17T17:35:01.452Z,42218.25
2023-08-17T17:37:28.136Z,42230.25
2023-08-17T17:39:54.720Z,42222.25
2023-08-17T17:42:21.249Z,42214.28
2023-08-17T17:44:47.863Z,42226.25
2023-08-17T17:47:14.486Z,42214.28
2023-08-17T17:49:41.247Z,42210.28
2023-08-17T17:52:07.680Z,42218.25
2023-08-17T17:54:38.356Z,42204.28
2023-08-17T17:57:05.482Z,42224.25
2023-08-17T17:59:32.082Z,42222.25
2023-08-17T18:01:58.796Z,42228.25
2023-08-17T18:04:26.008Z,42236.22
2023-08-17T18:06:52.831Z,42234.25
2023-08-17T18:09:20.442Z,42222.25
2023-08-17T18:11:47.001Z,42218.25
2023-08-17T18:14:14.930Z,42224.25
2023-08-17T18:16:41.454Z,42204.28
2023-08-17T18:19:08.752Z,42214.28
2023-08-17T18:21:35.179Z,42226.25
2023-08-17T18:24:01.689Z,42214.28
2023-08-17T18:26:28.257Z,42220.25
2023-08-17T18:28:56.409Z,42200.28
2023-08-17T18:31:23.052Z,42236.22
2023-08-17T18:33:50.095Z,42188.31
2023-08-17T18:36:16.757Z,42198.31
2023-08-17T18:38:43.211Z,42226.25
2023-08-17T18:41:10.562Z,42226.25
2023-08-17T18:43:37.730Z,42210.28
2023-08-17T18:46:04.815Z,42230.25
2023-08-17T18:48:31.578Z,42202.28
2023-08-17T18:50:58.341Z,42218.25
2023-08-17T18:53:25.478Z,42214.28
2023-08-17T18:55:52.003Z,42210.28
2023-08-17T18:58:19.794Z,42214.28
2023-08-17T19:00:46.339Z,42226.25
2023-08-17T19:03:13.365Z,42220.25
2023-08-17T19:05:40.595Z,42218.25
2023-08-17T19:08:07.153Z,42230.25
2023-08-17T19:10:33.656Z,42214.28
2023-08-17T19:13:00.211Z,42226.25
2023-08-17T19:15:26.762Z,42234.25
2023-08-17T19:17:53.313Z,42234.25
2023-08-17T19:20:19.753Z,42232.25
2023-08-17T19:22:46.220Z,42224.25
2023-08-17T19:25:12.843Z,42242.22
2023-08-17T19:27:41.385Z,42220.25
2023-08-17T19:30:11.449Z,42236.22
2023-08-17T19:32:41.324Z,42222.25
2023-08-17T19:35:08.255Z,42214.28
2023-08-17T19:37:35.321Z,42214.28
2023-08-17T19:40:04.010Z,42212.28
2023-08-17T19:42:30.836Z,42196.31
2023-08-17T19:44:57.312Z,42218.25
2023-08-17T19:47:23.988Z,42206.28
2023-08-17T19:49:50.535Z,42198.31
2023-08-17T19:52:17.574Z,42214.28
2023-08-17T19:54:48.116Z,42210.28
2023-08-17T19:57:14.788Z,42204.28
2023-08-17T19:59:41.237Z,42210.28
2023-08-17T20:02:07.750Z,42194.31
2023-08-17T20:04:34.500Z,42200.28
2023-08-17T20:07:00.994Z,42188.31
2023-08-17T20:09:27.413Z,42226.25
2023-08-17T20:11:53.852Z,42194.31
2023-08-17T20:14:22.759Z,42214.28
2023-08-17T20:16:50.026Z,42220.25
2023-08-17T20:19:16.610Z,42200.28
2023-08-17T20:21:43.037Z,42214.28
2023-08-17T20:24:10.552Z,42222.25
2023-08-17T20:26:38.651Z,42206.28
2023-08-17T20:29:05.100Z,42198.31
2023-08-17T20:31:31.778Z,42200.28
2023-08-17T20:33:58.254Z,42190.31
2023-08-17T20:36:24.679Z,42188.31
2023-08-17T20:38:52.938Z,42194.31
2023-08-17T20:41:20.801Z,42210.28
2023-08-17T20:43:47.629Z,42202.28
2023-08-17T20:46:14.504Z,42202.28
2023-08-17T20:48:41.431Z,42210.28
2023-08-17T20:51:08.618Z,42206.28
2023-08-17T20:53:36.507Z,42166.34
2023-08-17T20:56:03.802Z,42170.34
2023-08-17T20:58:30.283Z,42204.28
2023-08-17T21:00:59.250Z,42182.31
2023-08-17T21:03:25.832Z,42182.31
2023-08-17T21:05:52.279Z,42186.31
2023-08-17T21:08:19.434Z,42188.31
2023-08-17T21:10:48.712Z,42198.31
2023-08-17T21:13:15.274Z,42182.31
2023-08-17T21:15:41.982Z,42182.31
2023-08-17T21:18:08.648Z,42198.31
2023-08-17T21:20:35.289Z,42186.31
2023-08-17T21:23:01.745Z,42178.34
2023-08-17T21:25:28.192Z,42192.31
2023-08-17T21:27:54.625Z,42206.28
2023-08-17T21:30:22.086Z,42192.31
2023-08-17T21:32:48.607Z,42190.31
2023-08-17T21:35:15.181Z,42194.31
2023-08-17T21:37:43.806Z,42174.34
2023-08-17T21:40:11.085Z,42182.31
2023-08-17T21:42:37.530Z,42182.31
2023-08-17T21:45:04.517Z,42178.34
2023-08-17T21:47:31.395Z,42176.34
2023-08-17T21:49:58.218Z,42182.31
2023-08-17T21:52:24.761Z,42182.31
2023-08-17T21:54:51.512Z,42166.34
2023-08-17T21:57:18.772Z,42162.38
2023-08-17T21:59:45.444Z,42172.34
2023-08-17T22:02:11.952Z,42176.34
2023-08-17T22:04:38.640Z,42174.34
2023-08-17T22:07:05.257Z,42174.34
2023-08-17T22:09:34.249Z,42138.41
2023-08-17T22:12:00.834Z,42154.38
2023-08-17T22:14:29.493Z,42164.34
2023-08-17T22:16:57.438Z,42150.38
2023-08-17T22:19:24.358Z,42148.38
2023-08-17T22:21:50.968Z,42144.41
2023-08-17T22:24:17.441Z,42150.38
2023-08-17T22:26:44.134Z,42148.38
2023-08-17T22:29:10.911Z,42166.34
2023-08-17T22:31:37.401Z,42134.41
2023-08-17T22:34:04.046Z,42142.41
2023-08-17T22:36:30.512Z,42144.41
2023-08-17T22:38:57.254Z,42136.41
2023-08-17T22:41:24.262Z,42160.38
2023-08-17T22:43:50.751Z,42140.41
2023-08-17T22:46:17.329Z,42154.38
2023-08-17T22:48:44.330Z,42138.41
2023-08-17T22:51:11.360Z,42142.41
2023-08-17T22:53:38.063Z,42132.41
2023-08-17T22:56:04.777Z,42130.41
2023-08-17T22:58:31.983Z,42146.41
2023-08-17T23:00:59.054Z,42134.41
2023-08-17T23:03:26.413Z,42144.41
2023-08-17T23:05:53.480Z,42140.41
2023-08-17T23:08:19.920Z,42122.44
2023-08-17T23:10:47.253Z,42130.41
2023-08-17T23:13:13.793Z,42142.41
2023-08-17T23:15:40.274Z,42134.41
2023-08-17T23:18:07.016Z,42122.44
2023-08-17T23:20:33.552Z,42118.44
2023-08-17T23:23:00.001Z,42116.44
2023-08-17T23:25:26.900Z,42128.44
2023-08-17T23:27:53.493Z,42122.44
2023-08-17T23:30:22.004Z,42122.44
2023-08-17T23:32:48.528Z,42102.47
2023-08-17T23:35:15.019Z,42124.44
2023-08-17T23:37:41.530Z,42102.47
2023-08-17T23:40:08.767Z,42122.44
2023-08-17T23:42:35.206Z,42110.47
2023-08-17T23:45:02.165Z,42118.44
2023-08-17T23:47:28.879Z,42110.47
2023-08-17T23:49:55.547Z,42118.44
2023-08-17T23:52:21.965Z,42130.41
2023-08-17T23:54:48.385Z,42118.44
2023-08-17T23:57:14.833Z,42126.44
2023-08-17T23:59:41.329Z,42118.44
